sensor_id;sensor_type;location;lat;lon;timestamp;P1;durP1;ratioP1;P2;durP2;ratioP2
10295;SDS011;5193;51.032;6.356;2023-04-16T00:02:05;13.93;;;3.20;;
10295;SDS011;5193;51.032;6.356;2023-04-16T00:04:30;14.57;;;3.47;;
10295;SDS011;5193;51.032;6.356;2023-04-16T00:06:56;6.63;;;3.47;;
10295;SDS011;5193;51.032;6.356;2023-04-16T00:09:21;8.07;;;3.07;;
10295;SDS011;5193;51.032;6.356;2023-04-16T00:11:47;9.90;;;3.20;;
10295;SDS011;5193;51.032;6.356;2023-04-16T00:14:12;6.97;;;2.97;;
10295;SDS011;5193;51.032;6.356;2023-04-16T00:16:38;9.03;;;3.47;;
10295;SDS011;5193;51.032;6.356;2023-04-16T00:19:04;9.73;;;3.23;;
10295;SDS011;5193;51.032;6.356;2023-04-16T00:21:29;9.83;;;3.07;;
10295;SDS011;5193;51.032;6.356;2023-04-16T00:23:55;10.77;;;3.43;;
10295;SDS011;5193;51.032;6.356;2023-04-16T00:26:20;7.90;;;3.30;;
10295;SDS011;5193;51.032;6.356;2023-04-16T00:28:46;15.27;;;3.40;;
10295;SDS011;5193;51.032;6.356;2023-04-16T00:31:12;13.77;;;3.77;;
10295;SDS011;5193;51.032;6.356;2023-04-16T00:33:37;8.30;;;3.70;;
10295;SDS011;5193;51.032;6.356;2023-04-16T00:36:03;9.03;;;3.30;;
10295;SDS011;5193;51.032;6.356;2023-04-16T00:38:29;10.47;;;3.87;;
10295;SDS011;5193;51.032;6.356;2023-04-16T00:40:56;8.10;;;3.03;;
10295;SDS011;5193;51.032;6.356;2023-04-16T00:43:25;12.60;;;3.63;;
10295;SDS011;5193;51.032;6.356;2023-04-16T00:45:51;11.67;;;3.73;;
10295;SDS011;5193;51.032;6.356;2023-04-16T00:48:20;8.40;;;4.00;;
10295;SDS011;5193;51.032;6.356;2023-04-16T00:50:46;9.00;;;4.13;;
10295;SDS011;5193;51.032;6.356;2023-04-16T00:53:13;8.90;;;3.80;;
10295;SDS011;5193;51.032;6.356;2023-04-16T00:55:38;8.87;;;4.13;;
10295;SDS011;5193;51.032;6.356;2023-04-16T00:58:04;6.73;;;4.00;;
10295;SDS011;5193;51.032;6.356;2023-04-16T01:00:30;9.73;;;4.00;;
10295;SDS011;5193;51.032;6.356;2023-04-16T01:02:56;10.07;;;4.10;;
10295;SDS011;5193;51.032;6.356;2023-04-16T01:05:24;8.70;;;3.70;;
10295;SDS011;5193;51.032;6.356;2023-04-16T01:07:49;9.87;;;4.33;;
10295;SDS011;5193;51.032;6.356;2023-04-16T01:10:16;9.17;;;3.57;;
10295;SDS011;5193;51.032;6.356;2023-04-16T01:12:41;10.33;;;4.30;;
10295;SDS011;5193;51.032;6.356;2023-04-16T01:15:07;10.53;;;4.07;;
10295;SDS011;5193;51.032;6.356;2023-04-16T01:17:33;9.60;;;4.10;;
10295;SDS011;5193;51.032;6.356;2023-04-16T01:19:58;15.90;;;4.43;;
10295;SDS011;5193;51.032;6.356;2023-04-16T01:22:24;8.80;;;3.77;;
10295;SDS011;5193;51.032;6.356;2023-04-16T01:24:51;16.50;;;5.00;;
10295;SDS011;5193;51.032;6.356;2023-04-16T01:27:17;14.63;;;4.60;;
10295;SDS011;5193;51.032;6.356;2023-04-16T01:29:42;9.27;;;4.30;;
10295;SDS011;5193;51.032;6.356;2023-04-16T01:32:08;11.13;;;4.30;;
10295;SDS011;5193;51.032;6.356;2023-04-16T01:34:33;10.63;;;4.50;;
10295;SDS011;5193;51.032;6.356;2023-04-16T01:36:59;9.53;;;4.10;;
10295;SDS011;5193;51.032;6.356;2023-04-16T01:39:24;8.97;;;3.67;;
10295;SDS011;5193;51.032;6.356;2023-04-16T01:41:50;8.27;;;4.40;;
10295;SDS011;5193;51.032;6.356;2023-04-16T01:44:15;12.37;;;4.80;;
10295;SDS011;5193;51.032;6.356;2023-04-16T01:46:41;12.07;;;4.40;;
10295;SDS011;5193;51.032;6.356;2023-04-16T01:49:07;10.73;;;5.03;;
10295;SDS011;5193;51.032;6.356;2023-04-16T01:51:33;10.33;;;5.03;;
10295;SDS011;5193;51.032;6.356;2023-04-16T01:53:58;6.60;;;4.63;;
10295;SDS011;5193;51.032;6.356;2023-04-16T01:56:25;11.17;;;4.50;;
10295;SDS011;5193;51.032;6.356;2023-04-16T01:58:51;9.10;;;5.03;;
10295;SDS011;5193;51.032;6.356;2023-04-16T02:01:16;6.80;;;4.23;;
10295;SDS011;5193;51.032;6.356;2023-04-16T02:03:42;7.63;;;4.77;;
10295;SDS011;5193;51.032;6.356;2023-04-16T02:06:08;12.23;;;4.37;;
10295;SDS011;5193;51.032;6.356;2023-04-16T02:08:33;8.03;;;5.20;;
10295;SDS011;5193;51.032;6.356;2023-04-16T02:10:59;11.17;;;5.37;;
10295;SDS011;5193;51.032;6.356;2023-04-16T02:13:25;11.47;;;6.13;;
10295;SDS011;5193;51.032;6.356;2023-04-16T02:15:50;11.53;;;5.33;;
10295;SDS011;5193;51.032;6.356;2023-04-16T02:18:16;10.23;;;5.80;;
10295;SDS011;5193;51.032;6.356;2023-04-16T02:20:43;12.67;;;5.97;;
10295;SDS011;5193;51.032;6.356;2023-04-16T02:23:10;11.63;;;5.77;;
10295;SDS011;5193;51.032;6.356;2023-04-16T02:25:37;8.70;;;5.83;;
10295;SDS011;5193;51.032;6.356;2023-04-16T02:28:05;9.67;;;5.17;;
10295;SDS011;5193;51.032;6.356;2023-04-16T02:30:34;9.70;;;6.10;;
10295;SDS011;5193;51.032;6.356;2023-04-16T02:33:01;9.70;;;4.83;;
10295;SDS011;5193;51.032;6.356;2023-04-16T02:35:29;11.43;;;6.20;;
10295;SDS011;5193;51.032;6.356;2023-04-16T02:37:58;14.57;;;5.63;;
10295;SDS011;5193;51.032;6.356;2023-04-16T02:40:24;14.60;;;6.27;;
10295;SDS011;5193;51.032;6.356;2023-04-16T02:42:51;11.30;;;5.63;;
10295;SDS011;5193;51.032;6.356;2023-04-16T02:45:17;10.20;;;5.93;;
10295;SDS011;5193;51.032;6.356;2023-04-16T02:47:43;8.90;;;5.53;;
10295;SDS011;5193;51.032;6.356;2023-04-16T02:50:09;10.93;;;5.40;;
10295;SDS011;5193;51.032;6.356;2023-04-16T02:52:35;11.97;;;6.30;;
10295;SDS011;5193;51.032;6.356;2023-04-16T02:55:00;9.50;;;5.10;;
10295;SDS011;5193;51.032;6.356;2023-04-16T02:57:26;11.97;;;6.30;;
10295;SDS011;5193;51.032;6.356;2023-04-16T02:59:51;18.23;;;6.33;;
10295;SDS011;5193;51.032;6.356;2023-04-16T03:02:17;8.73;;;5.33;;
10295;SDS011;5193;51.032;6.356;2023-04-16T03:04:42;12.30;;;5.63;;
10295;SDS011;5193;51.032;6.356;2023-04-16T03:07:08;10.27;;;5.70;;
10295;SDS011;5193;51.032;6.356;2023-04-16T03:09:35;13.80;;;6.17;;
10295;SDS011;5193;51.032;6.356;2023-04-16T03:12:00;11.93;;;6.03;;
10295;SDS011;5193;51.032;6.356;2023-04-16T03:14:26;15.87;;;6.43;;
10295;SDS011;5193;51.032;6.356;2023-04-16T03:16:52;16.90;;;6.57;;
10295;SDS011;5193;51.032;6.356;2023-04-16T03:19:17;11.03;;;5.53;;
10295;SDS011;5193;51.032;6.356;2023-04-16T03:21:43;11.53;;;5.63;;
10295;SDS011;5193;51.032;6.356;2023-04-16T03:24:08;16.33;;;6.77;;
10295;SDS011;5193;51.032;6.356;2023-04-16T03:26:34;16.43;;;6.17;;
10295;SDS011;5193;51.032;6.356;2023-04-16T03:29:00;14.37;;;6.80;;
10295;SDS011;5193;51.032;6.356;2023-04-16T03:31:28;10.23;;;5.50;;
10295;SDS011;5193;51.032;6.356;2023-04-16T03:33:54;12.67;;;6.07;;
10295;SDS011;5193;51.032;6.356;2023-04-16T03:36:20;15.07;;;7.07;;
10295;SDS011;5193;51.032;6.356;2023-04-16T03:38:46;12.73;;;6.37;;
10295;SDS011;5193;51.032;6.356;2023-04-16T03:41:12;11.03;;;6.03;;
10295;SDS011;5193;51.032;6.356;2023-04-16T03:43:38;15.20;;;7.27;;
10295;SDS011;5193;51.032;6.356;2023-04-16T03:46:04;9.63;;;6.40;;
10295;SDS011;5193;51.032;6.356;2023-04-16T03:48:29;14.33;;;6.20;;
10295;SDS011;5193;51.032;6.356;2023-04-16T03:50:55;10.27;;;6.10;;
10295;SDS011;5193;51.032;6.356;2023-04-16T03:53:20;7.20;;;5.07;;
10295;SDS011;5193;51.032;6.356;2023-04-16T03:55:48;10.10;;;6.53;;
10295;SDS011;5193;51.032;6.356;2023-04-16T03:58:17;10.23;;;6.50;;
10295;SDS011;5193;51.032;6.356;2023-04-16T04:00:43;10.57;;;6.10;;
10295;SDS011;5193;51.032;6.356;2023-04-16T04:03:09;10.33;;;5.80;;
10295;SDS011;5193;51.032;6.356;2023-04-16T04:05:36;11.37;;;6.80;;
10295;SDS011;5193;51.032;6.356;2023-04-16T04:08:05;14.17;;;7.70;;
10295;SDS011;5193;51.032;6.356;2023-04-16T04:10:32;9.87;;;6.40;;
10295;SDS011;5193;51.032;6.356;2023-04-16T04:12:58;11.10;;;6.60;;
10295;SDS011;5193;51.032;6.356;2023-04-16T04:15:24;11.27;;;6.37;;
10295;SDS011;5193;51.032;6.356;2023-04-16T04:17:50;8.40;;;6.93;;
10295;SDS011;5193;51.032;6.356;2023-04-16T04:20:15;9.77;;;6.00;;
10295;SDS011;5193;51.032;6.356;2023-04-16T04:22:41;11.20;;;6.60;;
10295;SDS011;5193;51.032;6.356;2023-04-16T04:25:07;10.83;;;6.67;;
10295;SDS011;5193;51.032;6.356;2023-04-16T04:27:34;10.20;;;6.37;;
10295;SDS011;5193;51.032;6.356;2023-04-16T04:30:00;8.70;;;6.30;;
10295;SDS011;5193;51.032;6.356;2023-04-16T04:32:27;11.10;;;6.63;;
10295;SDS011;5193;51.032;6.356;2023-04-16T04:34:53;8.57;;;6.33;;
10295;SDS011;5193;51.032;6.356;2023-04-16T04:37:18;11.60;;;6.83;;
10295;SDS011;5193;51.032;6.356;2023-04-16T04:39:44;13.10;;;6.60;;
10295;SDS011;5193;51.032;6.356;2023-04-16T04:42:10;10.10;;;7.20;;
10295;SDS011;5193;51.032;6.356;2023-04-16T04:44:35;10.07;;;6.53;;
10295;SDS011;5193;51.032;6.356;2023-04-16T04:47:01;8.67;;;5.63;;
10295;SDS011;5193;51.032;6.356;2023-04-16T04:49:26;9.50;;;6.13;;
10295;SDS011;5193;51.032;6.356;2023-04-16T04:51:52;9.83;;;5.90;;
10295;SDS011;5193;51.032;6.356;2023-04-16T04:54:17;9.70;;;6.20;;
10295;SDS011;5193;51.032;6.356;2023-04-16T04:56:43;9.10;;;6.70;;
10295;SDS011;5193;51.032;6.356;2023-04-16T04:59:12;7.97;;;6.00;;
10295;SDS011;5193;51.032;6.356;2023-04-16T05:01:37;15.40;;;6.13;;
10295;SDS011;5193;51.032;6.356;2023-04-16T05:04:03;11.07;;;6.70;;
10295;SDS011;5193;51.032;6.356;2023-04-16T05:06:29;9.80;;;6.40;;
10295;SDS011;5193;51.032;6.356;2023-04-16T05:08:55;9.83;;;6.23;;
10295;SDS011;5193;51.032;6.356;2023-04-16T05:11:21;11.03;;;6.53;;
10295;SDS011;5193;51.032;6.356;2023-04-16T05:13:46;9.43;;;5.97;;
10295;SDS011;5193;51.032;6.356;2023-04-16T05:16:12;11.00;;;7.40;;
10295;SDS011;5193;51.032;6.356;2023-04-16T05:18:37;7.67;;;5.97;;
10295;SDS011;5193;51.032;6.356;2023-04-16T05:21:03;9.87;;;6.67;;
10295;SDS011;5193;51.032;6.356;2023-04-16T05:23:29;9.17;;;5.97;;
10295;SDS011;5193;51.032;6.356;2023-04-16T05:25:54;9.90;;;6.20;;
10295;SDS011;5193;51.032;6.356;2023-04-16T05:28:20;9.50;;;6.97;;
10295;SDS011;5193;51.032;6.356;2023-04-16T05:30:45;11.33;;;6.57;;
10295;SDS011;5193;51.032;6.356;2023-04-16T05:33:11;10.23;;;6.33;;
10295;SDS011;5193;51.032;6.356;2023-04-16T05:35:37;8.60;;;6.50;;
10295;SDS011;5193;51.032;6.356;2023-04-16T05:38:02;8.80;;;6.10;;
10295;SDS011;5193;51.032;6.356;2023-04-16T05:40:30;11.20;;;6.90;;
10295;SDS011;5193;51.032;6.356;2023-04-16T05:42:56;10.80;;;6.90;;
10295;SDS011;5193;51.032;6.356;2023-04-16T05:45:22;11.70;;;8.07;;
10295;SDS011;5193;51.032;6.356;2023-04-16T05:47:47;10.93;;;6.63;;
10295;SDS011;5193;51.032;6.356;2023-04-16T05:50:13;10.63;;;7.07;;
10295;SDS011;5193;51.032;6.356;2023-04-16T05:52:39;12.10;;;7.53;;
10295;SDS011;5193;51.032;6.356;2023-04-16T05:55:04;13.77;;;8.60;;
10295;SDS011;5193;51.032;6.356;2023-04-16T05:57:31;13.17;;;8.20;;
10295;SDS011;5193;51.032;6.356;2023-04-16T05:59:57;10.97;;;6.67;;
10295;SDS011;5193;51.032;6.356;2023-04-16T06:02:22;11.13;;;7.63;;
10295;SDS011;5193;51.032;6.356;2023-04-16T06:04:48;16.33;;;8.70;;
10295;SDS011;5193;51.032;6.356;2023-04-16T06:07:14;15.60;;;8.37;;
10295;SDS011;5193;51.032;6.356;2023-04-16T06:09:39;16.53;;;9.07;;
10295;SDS011;5193;51.032;6.356;2023-04-16T06:12:06;14.93;;;8.47;;
10295;SDS011;5193;51.032;6.356;2023-04-16T06:14:31;20.07;;;10.47;;
10295;SDS011;5193;51.032;6.356;2023-04-16T06:16:57;23.23;;;12.63;;
10295;SDS011;5193;51.032;6.356;2023-04-16T06:19:22;23.53;;;12.03;;
10295;SDS011;5193;51.032;6.356;2023-04-16T06:21:48;23.83;;;13.13;;
10295;SDS011;5193;51.032;6.356;2023-04-16T06:24:14;20.67;;;11.80;;
10295;SDS011;5193;51.032;6.356;2023-04-16T06:26:42;26.33;;;12.80;;
10295;SDS011;5193;51.032;6.356;2023-04-16T06:29:08;30.97;;;12.80;;
10295;SDS011;5193;51.032;6.356;2023-04-16T06:31:33;26.50;;;13.13;;
10295;SDS011;5193;51.032;6.356;2023-04-16T06:33:59;21.07;;;12.73;;
10295;SDS011;5193;51.032;6.356;2023-04-16T06:36:25;25.70;;;13.27;;
10295;SDS011;5193;51.032;6.356;2023-04-16T06:38:51;32.07;;;15.00;;
10295;SDS011;5193;51.032;6.356;2023-04-16T06:41:17;26.67;;;13.47;;
10295;SDS011;5193;51.032;6.356;2023-04-16T06:43:42;24.90;;;13.80;;
10295;SDS011;5193;51.032;6.356;2023-04-16T06:46:08;24.30;;;11.37;;
10295;SDS011;5193;51.032;6.356;2023-04-16T06:48:34;28.60;;;15.57;;
10295;SDS011;5193;51.032;6.356;2023-04-16T06:50:59;34.80;;;18.30;;
10295;SDS011;5193;51.032;6.356;2023-04-16T06:53:25;27.33;;;14.77;;
10295;SDS011;5193;51.032;6.356;2023-04-16T06:55:51;31.63;;;14.27;;
10295;SDS011;5193;51.032;6.356;2023-04-16T06:58:16;26.93;;;14.17;;
10295;SDS011;5193;51.032;6.356;2023-04-16T07:00:42;30.90;;;17.23;;
10295;SDS011;5193;51.032;6.356;2023-04-16T07:03:07;26.53;;;14.63;;
10295;SDS011;5193;51.032;6.356;2023-04-16T07:05:33;26.17;;;13.03;;
10295;SDS011;5193;51.032;6.356;2023-04-16T07:07:58;27.60;;;13.77;;
10295;SDS011;5193;51.032;6.356;2023-04-16T07:10:24;30.27;;;16.23;;
10295;SDS011;5193;51.032;6.356;2023-04-16T07:12:50;29.37;;;14.17;;
10295;SDS011;5193;51.032;6.356;2023-04-16T07:15:16;24.63;;;13.27;;
10295;SDS011;5193;51.032;6.356;2023-04-16T07:17:41;21.13;;;11.87;;
10295;SDS011;5193;51.032;6.356;2023-04-16T07:20:07;26.10;;;14.03;;
10295;SDS011;5193;51.032;6.356;2023-04-16T07:22:33;30.43;;;16.50;;
10295;SDS011;5193;51.032;6.356;2023-04-16T07:24:58;29.07;;;13.87;;
10295;SDS011;5193;51.032;6.356;2023-04-16T07:27:24;25.53;;;14.73;;
10295;SDS011;5193;51.032;6.356;2023-04-16T07:29:49;32.93;;;16.23;;
10295;SDS011;5193;51.032;6.356;2023-04-16T07:32:15;27.60;;;13.83;;
10295;SDS011;5193;51.032;6.356;2023-04-16T07:34:40;28.73;;;16.03;;
10295;SDS011;5193;51.032;6.356;2023-04-16T07:37:06;31.63;;;15.87;;
10295;SDS011;5193;51.032;6.356;2023-04-16T07:39:32;29.40;;;14.73;;
10295;SDS011;5193;51.032;6.356;2023-04-16T07:41:58;31.33;;;15.47;;
10295;SDS011;5193;51.032;6.356;2023-04-16T07:44:23;29.87;;;15.20;;
10295;SDS011;5193;51.032;6.356;2023-04-16T07:46:49;22.80;;;13.53;;
10295;SDS011;5193;51.032;6.356;2023-04-16T07:49:14;26.70;;;14.40;;
10295;SDS011;5193;51.032;6.356;2023-04-16T07:51:40;30.00;;;14.93;;
10295;SDS011;5193;51.032;6.356;2023-04-16T07:54:05;24.40;;;14.23;;
10295;SDS011;5193;51.032;6.356;2023-04-16T07:56:31;25.33;;;14.07;;
10295;SDS011;5193;51.032;6.356;2023-04-16T07:58:56;29.40;;;15.40;;
10295;SDS011;5193;51.032;6.356;2023-04-16T08:01:22;28.73;;;13.73;;
10295;SDS011;5193;51.032;6.356;2023-04-16T08:03:48;28.30;;;15.77;;
10295;SDS011;5193;51.032;6.356;2023-04-16T08:06:13;33.23;;;17.10;;
10295;SDS011;5193;51.032;6.356;2023-04-16T08:08:39;25.43;;;13.43;;
10295;SDS011;5193;51.032;6.356;2023-04-16T08:11:04;29.87;;;16.27;;
10295;SDS011;5193;51.032;6.356;2023-04-16T08:13:30;29.37;;;14.43;;
10295;SDS011;5193;51.032;6.356;2023-04-16T08:15:55;27.00;;;13.70;;
10295;SDS011;5193;51.032;6.356;2023-04-16T08:18:21;25.63;;;13.77;;
10295;SDS011;5193;51.032;6.356;2023-04-16T08:20:46;29.83;;;16.50;;
10295;SDS011;5193;51.032;6.356;2023-04-16T08:23:12;25.70;;;14.47;;
10295;SDS011;5193;51.032;6.356;2023-04-16T08:25:37;32.63;;;16.67;;
10295;SDS011;5193;51.032;6.356;2023-04-16T08:28:03;34.43;;;17.23;;
10295;SDS011;5193;51.032;6.356;2023-04-16T08:30:29;26.60;;;13.47;;
10295;SDS011;5193;51.032;6.356;2023-04-16T08:32:55;28.87;;;14.30;;
10295;SDS011;5193;51.032;6.356;2023-04-16T08:35:20;31.30;;;16.80;;
10295;SDS011;5193;51.032;6.356;2023-04-16T08:37:47;30.40;;;15.00;;
10295;SDS011;5193;51.032;6.356;2023-04-16T08:40:12;31.23;;;15.17;;
10295;SDS011;5193;51.032;6.356;2023-04-16T08:42:38;25.90;;;14.20;;
10295;SDS011;5193;51.032;6.356;2023-04-16T08:47:39;30.43;;;14.60;;
10295;SDS011;5193;51.032;6.356;2023-04-16T08:50:05;26.30;;;13.80;;
10295;SDS011;5193;51.032;6.356;2023-04-16T08:52:36;25.37;;;13.23;;
10295;SDS011;5193;51.032;6.356;2023-04-16T08:55:13;27.83;;;16.50;;
10295;SDS011;5193;51.032;6.356;2023-04-16T08:57:47;26.00;;;15.70;;
10295;SDS011;5193;51.032;6.356;2023-04-16T09:00:17;24.40;;;14.03;;
10295;SDS011;5193;51.032;6.356;2023-04-16T09:02:43;27.33;;;13.63;;
10295;SDS011;5193;51.032;6.356;2023-04-16T09:05:09;26.77;;;14.70;;
10295;SDS011;5193;51.032;6.356;2023-04-16T09:07:38;27.47;;;14.27;;
10295;SDS011;5193;51.032;6.356;2023-04-16T09:10:04;32.60;;;17.30;;
10295;SDS011;5193;51.032;6.356;2023-04-16T09:12:32;26.93;;;14.87;;
10295;SDS011;5193;51.032;6.356;2023-04-16T09:14:59;28.17;;;15.67;;
10295;SDS011;5193;51.032;6.356;2023-04-16T09:17:27;30.27;;;17.57;;
10295;SDS011;5193;51.032;6.356;2023-04-16T09:19:52;30.07;;;14.87;;
10295;SDS011;5193;51.032;6.356;2023-04-16T09:22:18;27.53;;;16.00;;
10295;SDS011;5193;51.032;6.356;2023-04-16T09:24:44;35.37;;;18.60;;
10295;SDS011;5193;51.032;6.356;2023-04-16T09:27:10;36.97;;;17.33;;
10295;SDS011;5193;51.032;6.356;2023-04-16T09:29:37;33.43;;;19.87;;
10295;SDS011;5193;51.032;6.356;2023-04-16T09:32:06;31.10;;;17.23;;
10295;SDS011;5193;51.032;6.356;2023-04-16T09:34:33;35.83;;;19.37;;
10295;SDS011;5193;51.032;6.356;2023-04-16T09:37:15;34.17;;;18.47;;
10295;SDS011;5193;51.032;6.356;2023-04-16T09:39:42;33.97;;;18.63;;
10295;SDS011;5193;51.032;6.356;2023-04-16T09:42:08;37.70;;;20.23;;
10295;SDS011;5193;51.032;6.356;2023-04-16T09:44:34;40.70;;;21.13;;
10295;SDS011;5193;51.032;6.356;2023-04-16T09:47:06;42.03;;;19.83;;
10295;SDS011;5193;51.032;6.356;2023-04-16T09:49:33;34.40;;;18.40;;
10295;SDS011;5193;51.032;6.356;2023-04-16T09:52:03;33.10;;;17.67;;
10295;SDS011;5193;51.032;6.356;2023-04-16T09:54:33;35.23;;;20.10;;
10295;SDS011;5193;51.032;6.356;2023-04-16T09:56:59;33.50;;;19.47;;
10295;SDS011;5193;51.032;6.356;2023-04-16T09:59:26;34.20;;;17.83;;
10295;SDS011;5193;51.032;6.356;2023-04-16T10:01:57;43.53;;;26.60;;
10295;SDS011;5193;51.032;6.356;2023-04-16T10:04:24;38.30;;;18.90;;
10295;SDS011;5193;51.032;6.356;2023-04-16T10:07:11;36.93;;;21.03;;
10295;SDS011;5193;51.032;6.356;2023-04-16T10:09:37;36.50;;;20.93;;
10295;SDS011;5193;51.032;6.356;2023-04-16T10:12:03;36.57;;;20.03;;
10295;SDS011;5193;51.032;6.356;2023-04-16T10:14:30;36.13;;;20.87;;
10295;SDS011;5193;51.032;6.356;2023-04-16T10:16:55;40.73;;;21.33;;
10295;SDS011;5193;51.032;6.356;2023-04-16T10:19:22;31.73;;;18.50;;
10295;SDS011;5193;51.032;6.356;2023-04-16T10:21:48;36.47;;;19.80;;
10295;SDS011;5193;51.032;6.356;2023-04-16T10:24:14;32.80;;;18.73;;
10295;SDS011;5193;51.032;6.356;2023-04-16T10:26:41;35.83;;;18.77;;
10295;SDS011;5193;51.032;6.356;2023-04-16T10:29:08;31.20;;;17.87;;
10295;SDS011;5193;51.032;6.356;2023-04-16T10:31:36;37.63;;;19.70;;
10295;SDS011;5193;51.032;6.356;2023-04-16T10:34:03;34.17;;;17.80;;
10295;SDS011;5193;51.032;6.356;2023-04-16T10:36:33;34.60;;;18.20;;
10295;SDS011;5193;51.032;6.356;2023-04-16T10:39:00;36.53;;;18.93;;
10295;SDS011;5193;51.032;6.356;2023-04-16T10:41:26;37.17;;;19.03;;
10295;SDS011;5193;51.032;6.356;2023-04-16T10:43:52;32.53;;;18.73;;
10295;SDS011;5193;51.032;6.356;2023-04-16T10:46:31;33.63;;;19.20;;
10295;SDS011;5193;51.032;6.356;2023-04-16T10:49:01;32.27;;;18.13;;
10295;SDS011;5193;51.032;6.356;2023-04-16T10:51:37;34.23;;;19.00;;
10295;SDS011;5193;51.032;6.356;2023-04-16T10:56:36;26.10;;;14.83;;
10295;SDS011;5193;51.032;6.356;2023-04-16T10:59:05;27.83;;;17.23;;
10295;SDS011;5193;51.032;6.356;2023-04-16T11:01:43;29.37;;;17.17;;
10295;SDS011;5193;51.032;6.356;2023-04-16T11:12:31;27.37;;;15.23;;
10295;SDS011;5193;51.032;6.356;2023-04-16T11:15:09;24.80;;;15.70;;
10295;SDS011;5193;51.032;6.356;2023-04-16T11:17:40;23.67;;;14.77;;
10295;SDS011;5193;51.032;6.356;2023-04-16T11:20:19;24.30;;;13.30;;
10295;SDS011;5193;51.032;6.356;2023-04-16T11:22:49;21.57;;;13.30;;
10295;SDS011;5193;51.032;6.356;2023-04-16T11:25:28;21.30;;;13.30;;
10295;SDS011;5193;51.032;6.356;2023-04-16T11:27:54;21.67;;;12.83;;
10295;SDS011;5193;51.032;6.356;2023-04-16T11:30:29;21.13;;;13.17;;
10295;SDS011;5193;51.032;6.356;2023-04-16T11:32:57;18.63;;;12.50;;
10295;SDS011;5193;51.032;6.356;2023-04-16T11:35:25;19.07;;;11.60;;
10295;SDS011;5193;51.032;6.356;2023-04-16T11:37:54;17.73;;;13.03;;
10295;SDS011;5193;51.032;6.356;2023-04-16T11:40:20;18.57;;;12.37;;
10295;SDS011;5193;51.032;6.356;2023-04-16T11:42:46;15.47;;;11.10;;
10295;SDS011;5193;51.032;6.356;2023-04-16T11:45:11;21.23;;;12.73;;
10295;SDS011;5193;51.032;6.356;2023-04-16T11:50:16;16.30;;;11.13;;
10295;SDS011;5193;51.032;6.356;2023-04-16T11:52:46;17.13;;;10.93;;
10295;SDS011;5193;51.032;6.356;2023-04-16T11:55:13;17.77;;;11.53;;
10295;SDS011;5193;51.032;6.356;2023-04-16T11:57:39;19.83;;;12.33;;
10295;SDS011;5193;51.032;6.356;2023-04-16T12:00:05;16.03;;;11.67;;
10295;SDS011;5193;51.032;6.356;2023-04-16T12:02:35;17.80;;;12.23;;
10295;SDS011;5193;51.032;6.356;2023-04-16T12:05:06;17.93;;;11.90;;
10295;SDS011;5193;51.032;6.356;2023-04-16T12:07:51;25.37;;;15.53;;
10295;SDS011;5193;51.032;6.356;2023-04-16T12:10:17;17.27;;;12.60;;
10295;SDS011;5193;51.032;6.356;2023-04-16T12:12:42;18.30;;;12.00;;
10295;SDS011;5193;51.032;6.356;2023-04-16T12:15:08;18.37;;;11.70;;
10295;SDS011;5193;51.032;6.356;2023-04-16T12:17:34;16.63;;;11.37;;
10295;SDS011;5193;51.032;6.356;2023-04-16T12:20:02;16.27;;;10.77;;
10295;SDS011;5193;51.032;6.356;2023-04-16T12:22:32;16.77;;;11.40;;
10295;SDS011;5193;51.032;6.356;2023-04-16T12:25:00;23.07;;;11.67;;
10295;SDS011;5193;51.032;6.356;2023-04-16T12:27:46;19.37;;;11.03;;
10295;SDS011;5193;51.032;6.356;2023-04-16T12:30:23;17.67;;;12.00;;
10295;SDS011;5193;51.032;6.356;2023-04-16T12:33:13;15.30;;;11.53;;
10295;SDS011;5193;51.032;6.356;2023-04-16T12:35:40;17.23;;;11.20;;
10295;SDS011;5193;51.032;6.356;2023-04-16T12:38:07;18.00;;;11.73;;
10295;SDS011;5193;51.032;6.356;2023-04-16T12:40:33;16.87;;;11.90;;
10295;SDS011;5193;51.032;6.356;2023-04-16T12:43:00;17.37;;;11.33;;
10295;SDS011;5193;51.032;6.356;2023-04-16T12:45:25;17.10;;;11.53;;
10295;SDS011;5193;51.032;6.356;2023-04-16T12:47:52;16.53;;;11.07;;
10295;SDS011;5193;51.032;6.356;2023-04-16T12:50:18;17.90;;;12.23;;
10295;SDS011;5193;51.032;6.356;2023-04-16T12:52:43;17.23;;;11.60;;
10295;SDS011;5193;51.032;6.356;2023-04-16T12:55:09;18.73;;;11.53;;
10295;SDS011;5193;51.032;6.356;2023-04-16T12:57:35;15.57;;;10.13;;
10295;SDS011;5193;51.032;6.356;2023-04-16T13:00:01;15.17;;;10.67;;
10295;SDS011;5193;51.032;6.356;2023-04-16T13:02:28;16.00;;;11.17;;
10295;SDS011;5193;51.032;6.356;2023-04-16T13:04:53;15.23;;;11.20;;
10295;SDS011;5193;51.032;6.356;2023-04-16T13:07:19;14.77;;;10.00;;
10295;SDS011;5193;51.032;6.356;2023-04-16T13:09:45;16.03;;;11.00;;
10295;SDS011;5193;51.032;6.356;2023-04-16T13:12:11;15.57;;;10.97;;
10295;SDS011;5193;51.032;6.356;2023-04-16T13:14:37;13.90;;;10.80;;
10295;SDS011;5193;51.032;6.356;2023-04-16T13:17:03;19.13;;;11.73;;
10295;SDS011;5193;51.032;6.356;2023-04-16T13:19:29;14.23;;;10.07;;
10295;SDS011;5193;51.032;6.356;2023-04-16T13:21:55;14.13;;;9.63;;
10295;SDS011;5193;51.032;6.356;2023-04-16T13:24:21;17.60;;;11.50;;
10295;SDS011;5193;51.032;6.356;2023-04-16T13:26:47;15.67;;;10.27;;
10295;SDS011;5193;51.032;6.356;2023-04-16T13:29:13;15.00;;;11.03;;
10295;SDS011;5193;51.032;6.356;2023-04-16T13:31:39;13.17;;;10.87;;
10295;SDS011;5193;51.032;6.356;2023-04-16T13:34:05;18.43;;;11.93;;
10295;SDS011;5193;51.032;6.356;2023-04-16T13:36:30;16.53;;;11.53;;
10295;SDS011;5193;51.032;6.356;2023-04-16T13:38:57;15.47;;;11.33;;
10295;SDS011;5193;51.032;6.356;2023-04-16T13:41:23;14.80;;;11.00;;
10295;SDS011;5193;51.032;6.356;2023-04-16T13:43:49;14.83;;;10.93;;
10295;SDS011;5193;51.032;6.356;2023-04-16T13:46:14;17.37;;;10.93;;
10295;SDS011;5193;51.032;6.356;2023-04-16T13:48:40;13.77;;;10.93;;
10295;SDS011;5193;51.032;6.356;2023-04-16T13:51:06;19.60;;;10.47;;
10295;SDS011;5193;51.032;6.356;2023-04-16T13:53:32;12.77;;;9.93;;
10295;SDS011;5193;51.032;6.356;2023-04-16T13:55:58;20.60;;;12.83;;
10295;SDS011;5193;51.032;6.356;2023-04-16T13:58:24;19.50;;;13.03;;
10295;SDS011;5193;51.032;6.356;2023-04-16T14:00:50;16.63;;;12.50;;
10295;SDS011;5193;51.032;6.356;2023-04-16T14:03:16;22.40;;;13.83;;
10295;SDS011;5193;51.032;6.356;2023-04-16T14:05:41;19.53;;;13.77;;
10295;SDS011;5193;51.032;6.356;2023-04-16T14:08:07;19.13;;;12.97;;
10295;SDS011;5193;51.032;6.356;2023-04-16T14:10:34;22.97;;;15.27;;
10295;SDS011;5193;51.032;6.356;2023-04-16T14:12:59;24.33;;;15.40;;
10295;SDS011;5193;51.032;6.356;2023-04-16T14:15:25;22.97;;;15.23;;
10295;SDS011;5193;51.032;6.356;2023-04-16T14:17:53;22.30;;;14.17;;
10295;SDS011;5193;51.032;6.356;2023-04-16T14:20:19;25.30;;;14.63;;
10295;SDS011;5193;51.032;6.356;2023-04-16T14:22:45;24.00;;;14.83;;
10295;SDS011;5193;51.032;6.356;2023-04-16T14:25:10;21.47;;;14.10;;
10295;SDS011;5193;51.032;6.356;2023-04-16T14:27:36;21.50;;;13.97;;
10295;SDS011;5193;51.032;6.356;2023-04-16T14:30:02;22.33;;;14.50;;
10295;SDS011;5193;51.032;6.356;2023-04-16T14:32:28;23.87;;;14.23;;
10295;SDS011;5193;51.032;6.356;2023-04-16T14:34:54;24.93;;;14.07;;
10295;SDS011;5193;51.032;6.356;2023-04-16T14:37:20;22.40;;;14.30;;
10295;SDS011;5193;51.032;6.356;2023-04-16T14:39:45;23.50;;;14.70;;
10295;SDS011;5193;51.032;6.356;2023-04-16T14:42:11;21.77;;;14.30;;
10295;SDS011;5193;51.032;6.356;2023-04-16T14:44:36;24.03;;;14.30;;
10295;SDS011;5193;51.032;6.356;2023-04-16T14:47:02;23.37;;;15.13;;
10295;SDS011;5193;51.032;6.356;2023-04-16T14:49:27;25.63;;;15.93;;
10295;SDS011;5193;51.032;6.356;2023-04-16T14:51:53;21.30;;;15.03;;
10295;SDS011;5193;51.032;6.356;2023-04-16T14:54:20;24.70;;;15.93;;
10295;SDS011;5193;51.032;6.356;2023-04-16T14:56:46;26.10;;;14.87;;